EFRO Airport Information

Runway Information
Runway 03 Length 9849 ft width 197 ft
Elevation 633 ft Threshold 0 ft Heading 37
Runway 21 Length 9849 ft Width 197 ft
Elevation 609 ft Threshold 0 ft Heading 217
Airport Frequencies
Type APP Name APP Frequency 125.8 MHZ
Type ATIS Name ATIS Frequency 117.7 MHZ
Type GND Name GND Frequency 118.525 MHZ
Type PMSV Name PMSV METRO Frequency 125.1 MHZ
Type TWR Name TWR Frequency 118.7 MHZ
Airport Navaids
Type NDB Name Papa-Alfa Frequency 377 KHZ
Type VOR-DME Name Rovani Frequency 117700 KHZ
Type NDB Name Toramo Frequency 416 KHZ
Airport Weather Information & NOTAM
ADDS - METARS form results

(1714 UTC 17 August 2019)
Data provider http://aviationweather.gov/metar/data/
 
METAR text: EFRO 171650Z AUTO 17006KT CAVOK 16/14 Q1009
Conditions at: EFRO (ROVANIEMI (CIV/M, FI) observed 1650 UTC 17 August 2019
Temperature: 16.0°C (61°F)
Dewpoint: 14.0°C (57°F) [RH = 88%]
Pressure (altimeter): 29.79 inches Hg (1009.0 mb)
Winds: from the S (170 degrees) at 7 MPH (6 knots; 3.1 m/s)
Visibility: 6 or more miles (10+ km)
Ceiling: ceiling and visibility are OK
Clouds: unknown
Weather: no significant weather observed at this time

METAR text: EFRO 171620Z AUTO 18006KT 9999 FEW023 BKN065 15/14 Q1009
Conditions at: EFRO (ROVANIEMI (CIV/M, FI) observed 1620 UTC 17 August 2019
Temperature: 15.0°C (59°F)
Dewpoint: 14.0°C (57°F) [RH = 94%]
Pressure (altimeter): 29.79 inches Hg (1009.0 mb)
Winds: from the S (180 degrees) at 7 MPH (6 knots; 3.1 m/s)
Visibility: 6 or more miles (10+ km)
Ceiling: 6500 feet AGL
Clouds: few clouds at 2300 feet AGL
broken clouds at 6500 feet AGL
Weather: no significant weather observed at this time

Forecast for: AMD
Text: TAF AMD EFRO 171554Z 1715/1815 18008KT 9999 FEW010 BKN032
Forecast period: 1500 UTC 17 August 2019 to 1500 UTC 18 August 2019
Forecast type: FROM: standard forecast or significant change
Winds: from the S (180 degrees) at 9 MPH (8 knots; 4.1 m/s)
Visibility: 6 or more miles 10+ km)
Ceiling: 3200 feet AGL
Clouds: few clouds at 1000 feet AGL
broken clouds at 3200 feet AGL
Weather: no significant weather forecast for this period
Text: PROB30 1720/1723 3000 BR BKN002 FEW020CB
Forecast period: 2000 to 2300 UTC 17 August 2019
Forecast type: PROBABLE: 30 percent likelihood of the following during this time
Visibility: 1.86 miles (2.99 km)
Ceiling: 200 feet AGL
Clouds: broken clouds at 200 feet AGL
few clouds at 2000 feet AGL
Weather: BR  (mist)
Text: TEMPO 1810/1815 6000 SHRA SCT020CB
Forecast period: 1000 to 1500 UTC 18 August 2019
Forecast type: TEMPORARY: The following changes expected for less than half the time period
Visibility: 4 miles (6 km)
Ceiling: at least 12,000 feet AGL
Clouds: scattered clouds at 2000 feet AGL
Weather: SHRA  (rain showers)